Time;durP1;ratioP1;P1;durP2;ratioP2;P2;SDS_P1;SDS_P2;PMS_P1;PMS_P2;Temp;Humidity;BMP_temperature;BMP_pressure;BME280_temperature;BME280_humidity;BME280_pressure;Samples;Min_cycle;Max_cycle;Signal;HPM_P1;HPM_P2
2022/10/17 00:00:26;;;;;;;33.65;16.85;;;;;;;13.17;95.14;101541.78;5060041;28;20152;-72
2022/10/17 00:02:54;;;;;;;31.10;16.23;;;;;;;13.16;95.23;101539.13;5061222;28;20439;-72
2022/10/17 00:05:19;;;;;;;30.70;16.95;;;;;;;13.14;95.21;101538.22;5063049;28;20109;-71
2022/10/17 00:07:45;;;;;;;32.92;17.02;;;;;;;13.11;95.39;101530.31;5062652;28;22083;-71
2022/10/17 00:10:10;;;;;;;31.48;16.88;;;;;;;13.09;95.71;101537.22;5057750;28;20090;-72
2022/10/17 00:12:35;;;;;;;32.17;16.55;;;;;;;13.08;96.08;101535.44;5068246;28;20028;-71
2022/10/17 00:15:03;;;;;;;32.45;15.68;;;;;;;13.06;96.15;101535.41;5064538;28;20078;-71
2022/10/17 00:17:29;;;;;;;30.88;15.65;;;;;;;13.07;96.73;101531.97;5062381;28;20024;-71
2022/10/17 00:19:54;;;;;;;33.45;15.40;;;;;;;13.07;97.09;101524.09;5062326;28;20028;-71
2022/10/17 00:22:20;;;;;;;30.05;14.40;;;;;;;13.06;97.36;101527.56;5062460;28;20117;-71
2022/10/17 00:24:45;;;;;;;33.30;15.82;;;;;;;13.08;97.29;101524.97;5077496;28;20510;-71
2022/10/17 00:27:10;;;;;;;27.23;15.15;;;;;;;13.08;97.66;101527.59;5063109;28;20081;-71
2022/10/17 00:29:35;;;;;;;32.83;16.35;;;;;;;13.07;98.29;101524.09;5061632;28;20486;-71
2022/10/17 00:32:01;;;;;;;35.25;15.90;;;;;;;13.07;98.21;101512.78;5061681;28;20039;-71
2022/10/17 00:34:29;;;;;;;33.65;15.77;;;;;;;13.07;97.97;101518.00;5062151;28;20058;-71
2022/10/17 00:36:54;;;;;;;36.13;17.47;;;;;;;13.08;98.13;101514.50;5062138;28;20028;-71
2022/10/17 00:39:20;;;;;;;31.52;15.35;;;;;;;13.09;99.10;101508.44;5061875;28;20023;-71
2022/10/17 00:41:45;;;;;;;38.17;17.65;;;;;;;13.09;98.27;101503.22;5062402;28;20033;-71
2022/10/17 00:44:28;;;;;;;33.78;15.90;;;;;;;13.11;99.46;101510.25;5060952;28;20062;-71
2022/10/17 00:46:54;;;;;;;32.90;16.50;;;;;;;13.12;100.00;101516.38;5061360;28;20028;-71
2022/10/17 00:49:23;;;;;;;31.02;15.65;;;;;;;13.11;100.00;101498.91;5061971;28;20028;-71
2022/10/17 00:51:52;;;;;;;32.70;15.57;;;;;;;13.10;100.00;101502.38;5061839;28;20036;-71
2022/10/17 00:54:22;;;;;;;33.53;16.10;;;;;;;13.11;99.91;101509.38;5060826;28;20025;-71
2022/10/17 00:56:48;;;;;;;34.17;15.63;;;;;;;13.11;100.00;101509.38;5060806;28;20028;-71
2022/10/17 00:59:15;;;;;;;32.10;16.00;;;;;;;13.10;99.61;101512.84;5062051;28;20077;-71
2022/10/17 01:01:45;;;;;;;35.00;15.75;;;;;;;13.11;100.00;101509.38;5063651;28;20854;-71
2022/10/17 01:04:10;;;;;;;;;;;;;;;13.21;98.14;101504.38;5078216;28;20067;-71
2022/10/17 01:06:35;;;;;;;34.90;16.57;;;;;;;13.16;99.58;101513.84;5061587;28;20505;-71
2022/10/17 01:09:00;;;;;;;40.60;17.35;;;;;;;13.15;100.00;101508.56;5060599;28;20324;-71
2022/10/17 01:11:36;;;;;;;37.10;16.92;;;;;;;13.18;100.00;101513.91;5062069;28;20013;-71
2022/10/17 01:14:21;;;;;;;41.97;17.20;;;;;;;13.16;100.00;101499.88;5061149;28;20036;-71
2022/10/17 01:17:07;;;;;;;37.88;18.10;;;;;;;13.17;100.00;101505.16;5060814;28;20021;-71
2022/10/17 01:19:37;;;;;;;36.33;16.42;;;;;;;13.16;100.00;101498.16;5061264;28;20067;-71
2022/10/17 01:22:12;;;;;;;37.10;17.67;;;;;;;13.17;100.00;101512.13;5061064;28;20085;-71
2022/10/17 01:24:43;;;;;;;42.30;19.38;;;;;;;13.19;100.00;101506.09;5061568;28;20074;-71
2022/10/17 01:27:21;;;;;;;46.78;20.05;;;;;;;13.22;100.00;101503.56;5059810;28;20077;-71
2022/10/17 01:30:09;;;;;;;46.38;20.40;;;;;;;13.28;100.00;101502.81;5061117;28;20460;-71
2022/10/17 01:32:42;;;;;;;46.67;20.15;;;;;;;13.34;100.00;101513.44;5061610;28;20036;-71
2022/10/17 01:35:26;;;;;;;49.15;21.70;;;;;;;13.44;100.00;101501.47;5060733;28;20025;-71
2022/10/17 01:37:58;;;;;;;50.00;21.48;;;;;;;13.48;100.00;101498.03;5061374;28;20039;-70
2022/10/17 01:40:43;;;;;;;46.22;20.80;;;;;;;13.52;100.00;101499.88;5062695;28;20036;-71
2022/10/17 01:43:25;;;;;;;48.58;21.15;;;;;;;13.59;100.00;101502.66;5060599;28;20427;-70
2022/10/17 01:45:57;;;;;;;50.30;21.13;;;;;;;13.64;100.00;101499.25;5060992;28;20016;-70
2022/10/17 01:48:28;;;;;;;46.03;21.70;;;;;;;13.70;100.00;101495.88;5060005;28;20028;-70
2022/10/17 01:51:20;;;;;;;50.00;21.98;;;;;;;13.74;100.00;101488.16;5060466;28;20032;-70
2022/10/17 01:53:57;;;;;;;49.92;21.23;;;;;;;13.79;100.00;101488.22;5065188;28;20043;-71
2022/10/17 01:56:26;;;;;;;51.10;22.08;;;;;;;13.83;100.00;101489.16;5060136;28;20052;-70
2022/10/17 01:59:01;;;;;;;49.75;21.20;;;;;;;13.86;100.00;101494.47;5060465;28;20028;-71
2022/10/17 02:01:29;;;;;;;51.90;21.88;;;;;;;13.86;100.00;101492.75;5061854;28;20024;-71
2022/10/17 02:03:56;;;;;;;48.78;20.13;;;;;;;13.85;100.00;101492.72;5061382;28;20400;-71
2022/10/17 02:06:22;;;;;;;45.28;20.80;;;;;;;13.85;100.00;101480.50;5060082;28;20073;-76
2022/10/17 02:08:49;;;;;;;52.28;21.85;;;;;;;13.84;100.00;101481.34;5060498;28;20454;-76
2022/10/17 02:11:21;;;;;;;44.05;19.92;;;;;;;13.79;100.00;101475.13;5060799;28;20016;-76
2022/10/17 02:14:16;;;;;;;47.22;20.17;;;;;;;13.78;100.00;101480.34;5061117;28;20032;-76
2022/10/17 02:16:47;;;;;;;44.45;20.23;;;;;;;13.73;100.00;101472.41;5061094;28;20035;-76
2022/10/17 02:19:35;;;;;;;45.67;20.35;;;;;;;13.72;100.00;101478.47;5060610;28;20036;-76
2022/10/17 02:22:20;;;;;;;44.33;20.02;;;;;;;13.69;100.00;101471.44;5061794;28;20027;-76
2022/10/17 02:25:06;;;;;;;41.45;19.67;;;;;;;13.67;100.00;101478.38;5059341;28;20118;-76
2022/10/17 02:28:13;;;;;;;45.10;19.98;;;;;;;13.69;100.00;101484.53;5059720;28;20764;-76
2022/10/17 02:30:46;;;;;;;42.50;19.45;;;;;;;13.64;100.00;101486.16;4987848;28;20069;-76
2022/10/17 02:33:20;;;;;;;44.08;19.98;;;;;;;13.62;100.00;101481.75;4998087;28;20061;-76
2022/10/17 02:35:52;;;;;;;44.67;19.88;;;;;;;13.60;100.00;101488.69;5034802;28;20032;-75
2022/10/17 02:38:18;;;;;;;44.42;20.40;;;;;;;13.59;100.00;101481.69;5059456;28;20065;-76
2022/10/17 02:40:45;;;;;;;49.55;21.08;;;;;;;13.58;100.00;101480.78;5059995;28;20493;-76
2022/10/17 02:43:11;;;;;;;46.25;20.83;;;;;;;13.57;100.00;101474.69;5058346;28;20026;-76
2022/10/17 02:45:39;;;;;;;47.67;21.13;;;;;;;13.56;100.00;101477.28;5059885;28;20036;-76
2022/10/17 02:48:11;;;;;;;44.10;19.95;;;;;;;13.63;100.00;101467.78;5059457;28;20426;-76
2022/10/17 02:50:56;;;;;;;46.00;20.30;;;;;;;13.81;100.00;101477.78;5059434;28;20024;-75
2022/10/17 02:53:47;;;;;;;40.90;18.60;;;;;;;14.00;100.00;101471.16;5061417;28;20043;-76
2022/10/17 02:56:23;;;;;;;48.28;20.35;;;;;;;14.15;100.00;101471.47;5060029;28;20052;-75
2022/10/17 02:58:53;;;;;;;43.58;19.23;;;;;;;14.25;100.00;101467.25;5059303;28;20108;-76
2022/10/17 03:01:19;;;;;;;45.42;19.98;;;;;;;14.33;100.00;101465.69;5064807;28;20037;-76
2022/10/17 03:03:45;;;;;;;43.80;19.20;;;;;;;14.38;100.00;101471.00;5068294;28;22140;-76
2022/10/17 03:06:10;;;;;;;50.20;19.77;;;;;;;14.43;100.00;101471.97;5059428;28;20123;-76
2022/10/17 03:08:35;;;;;;;44.60;19.08;;;;;;;14.49;100.00;101471.22;5059382;28;20078;-75
2022/10/17 03:11:01;;;;;;;40.80;18.65;;;;;;;14.53;100.00;101470.41;5059877;28;20040;-76
2022/10/17 03:13:27;;;;;;;44.80;19.45;;;;;;;14.58;100.00;101471.34;5060144;28;20374;-75
2022/10/17 03:15:52;;;;;;;41.47;18.98;;;;;;;14.61;100.00;101463.53;5061347;28;20039;-76
2022/10/17 03:18:18;;;;;;;40.30;18.23;;;;;;;14.64;100.00;101470.63;5060624;28;20069;-76
2022/10/17 03:20:43;;;;;;;45.40;18.45;;;;;;;14.66;100.00;101468.91;5058793;28;20032;-75
2022/10/17 03:23:08;;;;;;;42.15;18.80;;;;;;;14.68;100.00;101461.94;5060077;28;20062;-76
2022/10/17 03:25:33;;;;;;;37.63;19.08;;;;;;;14.71;100.00;101470.72;5058148;28;20029;-76
2022/10/17 03:28:00;;;;;;;38.03;17.73;;;;;;;14.72;100.00;101475.13;5063294;28;20048;-76
2022/10/17 03:30:26;;;;;;;37.20;18.30;;;;;;;14.74;100.00;101473.44;5065704;28;20070;-75
2022/10/17 03:32:51;;;;;;;39.60;18.30;;;;;;;14.75;100.00;101469.94;5061174;28;20033;-75
2022/10/17 03:35:16;;;;;;;41.30;18.38;;;;;;;14.77;100.00;101468.22;5058586;28;20036;-75
2022/10/17 03:37:41;;;;;;;42.58;18.40;;;;;;;14.78;100.00;101464.72;5059978;28;20032;-75
2022/10/17 03:40:07;;;;;;;35.53;17.90;;;;;;;14.79;100.00;101465.63;5063360;28;20139;-75
2022/10/17 03:42:32;;;;;;;38.83;17.90;;;;;;;14.81;100.00;101465.66;5064092;28;20032;-75
2022/10/17 03:44:58;;;;;;;35.92;17.80;;;;;;;14.81;100.00;101463.91;5064397;28;20027;-75
2022/10/17 03:47:23;;;;;;;36.65;17.20;;;;;;;14.84;100.00;101465.69;5071905;28;20032;-75
2022/10/17 03:49:48;;;;;;;37.67;17.27;;;;;;;14.88;100.00;101457.03;5072835;28;20032;-75
2022/10/17 03:52:14;;;;;;;40.78;17.00;;;;;;;14.91;100.00;101451.81;5070106;28;20028;-75
2022/10/17 03:54:39;;;;;;;38.20;17.52;;;;;;;14.93;100.00;101453.63;5072179;28;20028;-75
2022/10/17 03:57:05;;;;;;;39.20;17.20;;;;;;;14.98;100.00;101458.94;5071349;28;20506;-75
2022/10/17 03:59:30;;;;;;;39.78;17.55;;;;;;;15.00;100.00;101462.44;5061671;28;20052;-75
2022/10/17 04:01:55;;;;;;;40.40;17.60;;;;;;;15.01;100.00;101461.59;5069442;28;20032;-75
2022/10/17 04:04:21;;;;;;;40.70;17.00;;;;;;;15.02;100.00;101467.72;5072280;28;20027;-75
2022/10/17 04:06:46;;;;;;;39.15;17.45;;;;;;;15.02;100.00;101463.38;5071922;28;20031;-76
2022/10/17 04:09:12;;;;;;;34.28;16.52;;;;;;;15.03;100.00;101472.97;5071921;28;20131;-75
2022/10/17 04:11:37;;;;;;;38.08;16.73;;;;;;;15.03;100.00;101472.13;5071669;28;20031;-75
2022/10/17 04:14:03;;;;;;;36.15;17.33;;;;;;;15.05;100.00;101476.53;5071054;28;20103;-76
2022/10/17 04:16:28;;;;;;;38.63;16.55;;;;;;;15.07;100.00;101476.56;5061730;28;20024;-75
2022/10/17 04:18:56;;;;;;;37.13;15.98;;;;;;;15.10;100.00;101485.34;5062879;28;20044;-76
2022/10/17 04:21:23;;;;;;;33.10;16.48;;;;;;;15.14;100.00;101483.66;5061556;28;20035;-75
2022/10/17 04:23:55;;;;;;;41.53;17.20;;;;;;;15.18;100.00;101487.19;5069135;28;20017;-75
2022/10/17 04:26:21;;;;;;;35.45;16.67;;;;;;;15.19;100.00;101475.84;5071196;28;20140;-75
2022/10/17 04:28:46;;;;;;;34.05;17.42;;;;;;;15.23;100.00;101485.53;5062502;28;20060;-75
2022/10/17 04:31:13;;;;;;;37.03;17.00;;;;;;;15.24;100.00;101487.31;5061724;28;20066;-76
2022/10/17 04:33:39;;;;;;;36.90;17.17;;;;;;;15.24;100.00;101496.06;5062875;28;20063;-75
2022/10/17 04:36:12;;;;;;;32.70;16.50;;;;;;;15.25;100.00;101495.22;5062008;28;20076;-75
2022/10/17 04:38:38;;;;;;;34.17;16.70;;;;;;;15.26;100.00;101502.19;5059545;28;20059;-71
2022/10/17 04:41:06;;;;;;;32.35;16.45;;;;;;;15.25;100.00;101502.19;5056418;28;20119;-71
2022/10/17 04:43:34;;;;;;;38.08;16.15;;;;;;;15.24;100.00;101505.69;5061553;28;20028;-71
2022/10/17 04:46:01;;;;;;;43.78;16.35;;;;;;;15.23;100.00;101517.91;5061933;28;20074;-71
2022/10/17 04:48:28;;;;;;;34.67;16.00;;;;;;;15.22;100.00;101510.91;5061611;28;20491;-71
2022/10/17 04:51:06;;;;;;;35.83;17.65;;;;;;;15.22;100.00;101513.53;5061621;28;20111;-71
2022/10/17 04:53:33;;;;;;;33.17;16.27;;;;;;;15.22;100.00;101516.16;5061467;28;20024;-71
2022/10/17 04:55:59;;;;;;;30.27;15.65;;;;;;;15.22;100.00;101529.31;5061691;28;20054;-71
2022/10/17 04:58:24;;;;;;;31.92;15.48;;;;;;;15.22;100.00;101529.31;5061463;28;20162;-72
2022/10/17 05:00:50;;;;;;;37.28;16.55;;;;;;;15.23;100.00;101535.41;5063672;28;20145;-71
2022/10/17 05:03:15;;;;;;;31.55;15.57;;;;;;;15.22;100.00;101536.28;5061645;28;20024;-71
2022/10/17 05:05:41;;;;;;;32.85;16.20;;;;;;;15.22;100.00;101541.53;5076750;28;20491;-71
2022/10/17 05:08:08;;;;;;;32.28;16.70;;;;;;;15.22;100.00;101541.53;5066647;28;20097;-72
2022/10/17 05:10:39;;;;;;;33.22;16.08;;;;;;;15.21;100.00;101537.16;5060470;28;20027;-71
2022/10/17 05:13:05;;;;;;;31.65;15.57;;;;;;;15.21;100.00;101531.91;5064118;28;20033;-71
2022/10/17 05:15:30;;;;;;;31.58;15.43;;;;;;;15.21;100.00;101518.78;5068746;28;20089;-71
2022/10/17 05:17:56;;;;;;;33.65;15.85;;;;;;;15.22;100.00;101521.41;5061112;28;20024;-72
2022/10/17 05:20:22;;;;;;;32.42;16.05;;;;;;;15.22;100.00;101526.69;5076787;28;20086;-71
2022/10/17 05:22:47;;;;;;;31.55;15.57;;;;;;;15.24;100.00;101531.94;5068663;28;20021;-71
2022/10/17 05:25:12;;;;;;;30.10;15.00;;;;;;;15.25;100.00;101544.19;5067006;28;20391;-71
2022/10/17 05:27:38;;;;;;;28.60;15.07;;;;;;;15.25;100.00;101533.69;5061096;28;20408;-71
2022/10/17 05:30:04;;;;;;;31.63;15.60;;;;;;;15.26;100.00;101549.47;5061297;28;20032;-71
2022/10/17 05:32:29;;;;;;;32.38;15.15;;;;;;;15.28;100.00;101546.91;5063126;28;20167;-71
2022/10/17 05:34:54;;;;;;;32.22;16.00;;;;;;;15.28;100.00;101545.13;5067366;28;20162;-72
2022/10/17 05:37:20;;;;;;;32.38;15.70;;;;;;;15.31;100.00;101546.94;5066799;28;20105;-71
2022/10/17 05:39:45;;;;;;;36.63;15.85;;;;;;;15.33;100.00;101545.19;5064179;28;20388;-71
2022/10/17 05:42:11;;;;;;;33.47;15.40;;;;;;;15.34;100.00;101552.22;5061426;28;20496;-71
2022/10/17 05:44:38;;;;;;;32.28;15.43;;;;;;;15.38;100.00;101553.13;5063161;28;20036;-71
2022/10/17 05:47:03;;;;;;;30.55;14.57;;;;;;;15.39;100.00;101555.78;5065772;28;20494;-71
2022/10/17 05:49:28;;;;;;;35.20;15.45;;;;;;;15.41;100.00;101561.97;5060363;28;21329;-71
2022/10/17 05:51:54;;;;;;;32.08;15.02;;;;;;;15.43;100.00;101557.59;5060185;28;20024;-71
2022/10/17 05:54:19;;;;;;;35.03;14.95;;;;;;;15.44;100.00;101562.00;5063694;28;20535;-71
2022/10/17 05:56:44;;;;;;;29.40;15.52;;;;;;;15.45;100.00;101558.53;5060588;28;20032;-71
2022/10/17 05:59:10;;;;;;;35.80;16.15;;;;;;;15.47;100.00;101555.94;5060766;28;20035;-71
2022/10/17 06:01:35;;;;;;;31.15;14.85;;;;;;;15.48;100.00;101566.44;5059214;28;20079;-72
2022/10/17 06:04:00;;;;;;;31.40;15.02;;;;;;;15.50;100.00;101558.59;5060808;28;20028;-71
2022/10/17 06:06:25;;;;;;;33.97;15.95;;;;;;;15.51;100.00;101551.59;5059278;28;20522;-72
2022/10/17 06:08:51;;;;;;;29.83;14.65;;;;;;;15.52;100.00;101556.00;5059624;28;20028;-71
2022/10/17 06:11:16;;;;;;;30.67;14.98;;;;;;;15.51;100.00;101563.00;5060206;28;20486;-72
2022/10/17 06:13:41;;;;;;;31.55;14.68;;;;;;;15.53;100.00;101561.25;5066815;28;20036;-72
2022/10/17 06:16:07;;;;;;;34.40;15.55;;;;;;;15.55;100.00;101571.78;5069040;28;20058;-71
2022/10/17 06:18:32;;;;;;;26.65;13.73;;;;;;;15.56;100.00;101565.69;5068835;28;20035;-76
2022/10/17 06:21:06;;;;;;;29.60;15.18;;;;;;;15.56;100.00;101569.19;5068513;28;20029;-76
2022/10/17 06:23:32;;;;;;;30.50;14.90;;;;;;;15.61;100.00;101571.88;5070146;28;20036;-76
2022/10/17 06:25:59;;;;;;;31.48;14.60;;;;;;;15.62;100.00;101568.41;5069553;28;20078;-76
2022/10/17 06:28:24;;;;;;;30.05;15.05;;;;;;;15.62;100.00;101571.88;5068011;28;20059;-76
2022/10/17 06:30:50;;;;;;;25.98;14.52;;;;;;;15.63;100.00;101571.03;5067537;28;20039;-76
2022/10/17 06:33:16;;;;;;;29.38;14.77;;;;;;;15.67;100.00;101571.97;5060144;28;20471;-76
2022/10/17 06:35:42;;;;;;;31.05;16.02;;;;;;;15.69;100.00;101569.38;5060802;28;20021;-76
2022/10/17 06:38:07;;;;;;;33.15;14.55;;;;;;;15.69;100.00;101570.25;5060353;28;20082;-76
2022/10/17 06:40:32;;;;;;;30.48;15.55;;;;;;;15.70;100.00;101572.03;5056124;28;20574;-78
2022/10/17 06:42:58;;;;;;;30.52;14.80;;;;;;;15.73;100.00;101572.06;5055378;28;20463;-77
2022/10/17 06:45:23;;;;;;;30.35;14.60;;;;;;;15.74;100.00;101581.72;5055644;28;20029;-77
2022/10/17 06:47:49;;;;;;;30.60;15.35;;;;;;;15.76;100.00;101582.59;5054313;28;20020;-76
2022/10/17 06:50:14;;;;;;;30.73;14.30;;;;;;;15.77;100.00;101591.38;5057780;28;21086;-76
2022/10/17 06:52:39;;;;;;;31.75;15.48;;;;;;;15.80;100.00;101600.22;5060225;28;20020;-76
2022/10/17 06:55:05;;;;;;;28.70;14.73;;;;;;;15.80;100.00;101600.22;5059878;28;20501;-76
2022/10/17 06:57:30;;;;;;;31.83;13.75;;;;;;;15.84;100.00;101605.53;5067357;28;20039;-76
2022/10/17 06:59:56;;;;;;;29.25;14.32;;;;;;;15.86;100.00;101593.25;5068961;28;20029;-76
2022/10/17 07:02:23;;;;;;;27.45;13.65;;;;;;;15.89;100.00;101588.06;5062152;28;20029;-76
2022/10/17 07:04:48;;;;;;;27.88;14.00;;;;;;;15.92;100.00;101591.63;5069007;28;20063;-76
2022/10/17 07:07:14;;;;;;;32.15;14.98;;;;;;;15.96;100.00;101592.53;5068633;28;20491;-76
2022/10/17 07:09:40;;;;;;;29.20;13.50;;;;;;;15.98;100.00;101598.72;5069119;28;20029;-76
2022/10/17 07:12:07;;;;;;;30.45;14.43;;;;;;;16.02;100.00;101605.78;5066343;28;20033;-76
2022/10/17 07:14:33;;;;;;;29.45;15.13;;;;;;;16.04;100.00;101603.16;5070676;28;20112;-76
2022/10/17 07:16:58;;;;;;;32.60;14.25;;;;;;;16.04;100.00;101598.78;5073386;28;20020;-71
2022/10/17 07:19:25;;;;;;;28.08;14.07;;;;;;;16.06;100.00;101604.06;5069765;28;20024;-71
2022/10/17 07:21:51;;;;;;;26.70;14.57;;;;;;;16.08;100.00;101607.59;5064324;28;20060;-72
2022/10/17 07:24:16;;;;;;;29.73;14.05;;;;;;;16.10;99.76;101606.75;5069621;28;20169;-72
2022/10/17 07:26:42;;;;;;;28.40;13.77;;;;;;;16.12;99.98;101615.56;5070718;28;20025;-71
2022/10/17 07:29:08;;;;;;;30.20;14.52;;;;;;;16.15;99.59;101623.47;5070833;28;20066;-72
2022/10/17 07:31:33;;;;;;;29.17;14.52;;;;;;;16.15;99.33;101622.59;5067317;28;20067;-72
2022/10/17 07:33:59;;;;;;;25.65;13.48;;;;;;;16.16;99.71;101622.63;5070085;28;20472;-72
2022/10/17 07:36:25;;;;;;;28.58;14.10;;;;;;;16.17;98.80;101642.75;5064079;28;20115;-71
2022/10/17 07:38:50;;;;;;;29.60;14.30;;;;;;;16.19;99.17;101669.06;5062325;28;20024;-72
2022/10/17 07:41:15;;;;;;;28.35;14.20;;;;;;;16.20;99.16;101689.25;5066146;28;20020;-71
2022/10/17 07:43:41;;;;;;;28.42;14.57;;;;;;;16.24;98.69;101708.63;5083524;28;20082;-72
2022/10/17 07:46:08;;;;;;;28.95;16.52;;;;;;;16.25;98.80;101728.75;5069761;28;20028;-72
2022/10/17 07:48:33;;;;;;;29.85;13.45;;;;;;;16.25;98.34;101727.03;5068425;28;20047;-72
2022/10/17 07:51:04;;;;;;;28.58;13.75;;;;;;;16.29;98.92;101752.53;5072591;28;20029;-71
2022/10/17 07:53:30;;;;;;;26.25;13.48;;;;;;;16.28;98.91;101770.88;5070872;28;20436;-71
2022/10/17 07:55:56;;;;;;;30.23;13.68;;;;;;;16.28;98.76;101757.72;5087210;28;20111;-71
2022/10/17 07:58:21;;;;;;;34.05;15.85;;;;;;;16.28;98.93;101758.63;5067866;28;20055;-71
2022/10/17 08:00:47;;;;;;;29.35;14.10;;;;;;;16.29;98.83;101756.88;5064385;28;20028;-71
2022/10/17 08:03:13;;;;;;;28.67;13.23;;;;;;;16.29;99.32;101749.91;5060224;28;20035;-71
2022/10/17 08:05:38;;;;;;;27.60;13.35;;;;;;;16.28;99.90;101766.53;5058216;28;20124;-71
2022/10/17 08:08:03;;;;;;;26.98;12.95;;;;;;;16.29;100.00;101760.41;5070411;28;20399;-71
2022/10/17 08:10:29;;;;;;;30.08;13.32;;;;;;;16.29;100.00;101754.25;5070254;28;20029;-71
2022/10/17 08:12:56;;;;;;;27.05;13.73;;;;;;;16.28;100.00;101755.09;5068558;28;20028;-71
2022/10/17 08:15:22;;;;;;;29.95;13.93;;;;;;;16.28;100.00;101755.09;5067338;28;20021;-71
2022/10/17 08:17:47;;;;;;;27.95;14.07;;;;;;;16.27;100.00;101769.13;5065239;28;20078;-71
2022/10/17 08:20:13;;;;;;;31.83;14.18;;;;;;;16.27;100.00;101782.28;5065224;28;20028;-71
2022/10/17 08:22:38;;;;;;;30.63;15.20;;;;;;;16.25;100.00;101800.69;5057371;28;20115;-71
2022/10/17 08:25:04;;;;;;;30.75;14.43;;;;;;;16.24;100.00;101827.81;5055626;28;20029;-71
2022/10/17 08:27:32;;;;;;;31.20;14.20;;;;;;;16.23;100.00;101835.69;5057985;28;20028;-71
2022/10/17 08:29:58;;;;;;;29.65;15.30;;;;;;;16.22;100.00;101819.03;5067504;28;20052;-70
2022/10/17 08:32:25;;;;;;;32.15;14.95;;;;;;;16.21;100.00;101816.38;5064523;28;20113;-71
2022/10/17 08:34:51;;;;;;;31.80;15.00;;;;;;;16.21;100.00;101821.66;5081829;28;20028;-71
2022/10/17 08:37:17;;;;;;;29.70;14.93;;;;;;;16.22;100.00;101829.56;5056966;28;20055;-70
2022/10/17 08:39:43;;;;;;;31.73;15.07;;;;;;;16.21;100.00;101821.66;5055590;28;20502;-71
2022/10/17 08:42:45;;;;;;;33.00;15.52;;;;;;;16.22;100.00;101812.88;5055648;28;20056;-70
2022/10/17 08:45:17;;;;;;;29.92;16.10;;;;;;;16.20;100.00;101823.38;5059159;28;20032;-70
2022/10/17 08:47:58;;;;;;;31.70;15.15;;;;;;;16.19;100.00;101829.47;5061149;28;20063;-70
2022/10/17 08:50:55;;;;;;;34.13;14.82;;;;;;;16.19;100.00;101821.59;5060619;28;20567;-70
2022/10/17 08:53:34;;;;;;;32.80;14.52;;;;;;;16.17;100.00;101805.78;5061874;28;20047;-70
2022/10/17 08:56:06;;;;;;;28.02;14.80;;;;;;;16.15;100.00;101810.16;5065211;28;20032;-70
2022/10/17 08:58:35;;;;;;;36.40;15.25;;;;;;;16.15;100.00;101812.78;5064101;28;20055;-75
2022/10/17 09:01:22;;;;;;;32.85;15.38;;;;;;;16.15;100.00;101811.91;5062995;28;20060;-75
2022/10/17 09:04:26;;;;;;;30.88;15.35;;;;;;;16.17;100.00;101816.31;5062431;28;20032;-75
2022/10/17 09:07:00;;;;;;;31.45;16.45;;;;;;;16.17;100.00;101811.06;5061652;28;20094;-75
2022/10/17 09:09:34;;;;;;;30.88;15.70;;;;;;;16.19;100.00;101831.25;5064618;28;20034;-75
2022/10/17 09:12:13;;;;;;;28.98;14.55;;;;;;;16.17;100.00;101834.72;5064397;28;20024;-75
2022/10/17 09:14:54;;;;;;;28.90;15.25;;;;;;;16.17;100.00;101850.50;5066207;28;20161;-74
2022/10/17 09:17:39;;;;;;;33.17;15.05;;;;;;;16.18;100.00;101872.44;5066200;28;20063;-75
2022/10/17 09:20:37;;;;;;;35.53;15.82;;;;;;;16.17;100.00;101879.41;5068571;28;20240;-73
2022/10/17 09:23:14;;;;;;;33.25;15.40;;;;;;;16.15;100.00;101901.31;5069574;28;20028;-73
2022/10/17 09:25:48;;;;;;;31.85;15.05;;;;;;;16.13;100.00;101871.47;5069407;28;20130;-73
2022/10/17 09:28:19;;;;;;;33.65;16.55;;;;;;;16.11;100.00;101884.59;5066286;28;20075;-69
2022/10/17 09:30:50;;;;;;;33.88;15.93;;;;;;;16.09;100.00;101828.47;5064818;28;20104;-69
2022/10/17 09:33:18;;;;;;;29.65;15.05;;;;;;;16.09;100.00;101796.00;5067712;28;20035;-69
2022/10/17 09:35:45;;;;;;;33.00;14.55;;;;;;;16.07;100.00;101785.47;5063415;28;20399;-69
2022/10/17 09:38:16;;;;;;;32.45;15.27;;;;;;;16.07;100.00;101785.47;5060255;28;20032;-69
2022/10/17 09:40:41;;;;;;;29.85;14.50;;;;;;;16.08;100.00;101795.13;5059686;28;20028;-70
2022/10/17 09:43:12;;;;;;;32.33;15.50;;;;;;;16.09;100.00;101815.31;5062067;28;20036;-70
2022/10/17 09:45:48;;;;;;;30.65;15.05;;;;;;;16.09;100.00;101835.44;5065793;28;20024;-70
2022/10/17 09:48:22;;;;;;;32.00;15.88;;;;;;;16.08;100.00;101852.97;5057712;28;20504;-70
2022/10/17 09:50:47;;;;;;;36.65;17.05;;;;;;;16.09;100.00;101857.38;5065806;28;20059;-70
2022/10/17 09:53:29;;;;;;;35.90;16.40;;;;;;;16.10;100.00;101847.75;5065452;28;20496;-70
2022/10/17 09:55:57;;;;;;;35.45;16.70;;;;;;;16.11;100.00;101841.63;5061743;28;20060;-70
2022/10/17 09:58:23;;;;;;;38.90;16.58;;;;;;;16.12;100.00;101839.03;5061852;28;20028;-74
2022/10/17 10:00:48;;;;;;;32.13;15.60;;;;;;;16.13;100.00;101830.28;5058795;28;20107;-74
2022/10/17 10:03:25;;;;;;;36.38;16.02;;;;;;;16.15;100.00;101822.44;5066191;28;20321;-74
2022/10/17 10:05:58;;;;;;;37.08;16.88;;;;;;;16.15;100.00;101828.56;5063856;28;20038;-74
2022/10/17 10:08:28;;;;;;;36.22;16.55;;;;;;;16.17;100.00;101829.47;5069742;28;20066;-74
2022/10/17 10:11:03;;;;;;;38.17;16.77;;;;;;;16.20;100.00;101833.00;5077895;28;20119;-74
2022/10/17 10:13:30;;;;;;;33.58;16.23;;;;;;;16.20;100.00;101839.16;5065036;28;20092;-74
2022/10/17 10:16:12;;;;;;;35.83;17.25;;;;;;;16.23;100.00;101851.47;5080881;28;20024;-75
2022/10/17 10:18:37;;;;;;;35.90;16.95;;;;;;;16.22;100.00;101855.84;5058017;28;20060;-74
2022/10/17 10:21:11;;;;;;;37.00;16.98;;;;;;;16.24;100.00;101856.75;5064267;28;20495;-74
2022/10/17 10:23:40;;;;;;;33.30;16.20;;;;;;;16.24;100.00;101869.03;5068059;28;20032;-74
2022/10/17 10:26:21;;;;;;;39.10;16.50;;;;;;;16.26;100.00;101872.56;5064042;28;20025;-74
2022/10/17 10:29:01;;;;;;;29.63;14.98;;;;;;;16.26;100.00;101883.06;5058692;28;20071;-74
2022/10/17 10:31:38;;;;;;;31.13;14.52;;;;;;;16.27;100.00;101895.38;5062373;28;20027;-74
2022/10/17 10:34:25;;;;;;;31.83;14.60;;;;;;;16.28;100.00;101892.75;5060401;28;20043;-75
2022/10/17 10:36:59;;;;;;;29.98;14.77;;;;;;;16.28;100.00;101891.84;5072580;28;20483;-75
2022/10/17 10:39:49;;;;;;;28.08;14.50;;;;;;;16.32;100.00;101904.22;5070029;28;20502;-74
2022/10/17 10:42:19;;;;;;;28.08;13.73;;;;;;;16.32;100.00;101914.72;5069818;28;20028;-75
2022/10/17 10:44:45;;;;;;;31.60;14.75;;;;;;;16.34;100.00;101913.03;5070056;28;20550;-74
2022/10/17 10:47:19;;;;;;;31.67;14.85;;;;;;;16.37;100.00;101934.13;5070000;28;20028;-74
2022/10/17 10:49:44;;;;;;;29.63;13.63;;;;;;;16.37;100.00;101949.91;5056521;28;20189;-74
2022/10/17 10:52:42;;;;;;;25.50;13.52;;;;;;;16.38;100.00;101946.41;5068662;28;20036;-73
2022/10/17 10:55:25;;;;;;;28.80;13.20;;;;;;;16.38;100.00;101946.41;5063363;28;20782;-73
2022/10/17 10:57:57;;;;;;;23.60;12.35;;;;;;;16.36;100.00;101958.66;5059114;28;20032;-71
2022/10/17 11:00:26;;;;;;;26.40;12.70;;;;;;;16.36;100.00;101947.25;5053282;28;20032;-71
2022/10/17 11:03:15;;;;;;;24.83;12.65;;;;;;;16.36;100.00;101940.22;5053040;28;20028;-70
2022/10/17 11:05:57;;;;;;;25.92;13.30;;;;;;;16.36;100.00;101949.88;5052998;28;20037;-70
2022/10/17 11:08:30;;;;;;;26.65;12.93;;;;;;;16.35;100.00;101956.88;5059112;28;20544;-70
2022/10/17 11:10:59;;;;;;;25.83;12.15;;;;;;;16.36;100.00;101949.88;5062967;28;20392;-70
2022/10/17 11:13:42;;;;;;;25.48;12.68;;;;;;;16.37;100.00;101949.03;5057796;28;20107;-70